createdAt,value
2019-01-26T00:01:53.785Z,83.58
2019-01-26T00:05:13.673Z,83.54
2019-01-26T00:08:04.181Z,82.87
2019-01-26T00:10:49.971Z,82.14
2019-01-26T00:13:33.211Z,81.71
2019-01-26T00:16:21.209Z,81.86
2019-01-26T00:19:14.718Z,82.26
2019-01-26T00:22:16.210Z,82.25
2019-01-26T00:25:27.547Z,80.96
2019-01-26T00:28:34.844Z,80.85
2019-01-26T00:31:17.342Z,81.27
2019-01-26T00:33:58.538Z,80.65
2019-01-26T00:39:56.149Z,80.48
2019-01-26T00:43:09.523Z,80.52
2019-01-26T00:45:54.542Z,80.10
2019-01-26T00:51:22.929Z,81.25
2019-01-26T00:53:58.417Z,81.00
2019-01-26T00:57:19.061Z,80.85
2019-01-26T01:00:14.364Z,80.63
2019-01-26T01:03:05.531Z,80.09
2019-01-26T01:05:40.439Z,80.65
2019-01-26T01:08:56.104Z,80.35
2019-01-26T01:12:06.301Z,79.82
2019-01-26T01:18:13.898Z,78.50
2019-01-26T01:21:22.775Z,77.57
2019-01-26T01:24:25.137Z,76.79
2019-01-26T01:27:21.544Z,76.18
2019-01-26T01:30:27.453Z,75.55
2019-01-26T01:33:06.320Z,76.19
2019-01-26T01:35:53.663Z,75.60
2019-01-26T01:38:44.641Z,77.53
2019-01-26T01:41:27.649Z,78.00
2019-01-26T01:44:20.556Z,78.93
2019-01-26T01:47:16.822Z,80.15
2019-01-26T01:50:02.666Z,81.57
2019-01-26T01:52:53.186Z,81.97
2019-01-26T01:55:37.515Z,82.54
2019-01-26T01:58:27.736Z,83.06
2019-01-26T02:01:13.504Z,83.26
2019-01-26T02:04:13.149Z,82.59
2019-01-26T02:07:00.740Z,83.23
2019-01-26T02:12:59.166Z,83.70
2019-01-26T02:15:47.795Z,84.31
2019-01-26T02:18:32.863Z,83.91
2019-01-26T02:21:27.003Z,83.01
2019-01-26T02:24:12.756Z,82.73
2019-01-26T02:26:48.279Z,83.20
2019-01-26T02:29:20.345Z,82.43
2019-01-26T02:32:20.670Z,83.07
2019-01-26T02:35:04.115Z,83.25
2019-01-26T02:37:44.863Z,83.19
2019-01-26T02:40:39.826Z,82.41
2019-01-26T02:43:21.003Z,81.61
2019-01-26T02:45:54.290Z,81.54
2019-01-26T02:48:38.634Z,82.06
2019-01-26T02:51:28.080Z,82.08
2019-01-26T02:54:14.015Z,81.95
2019-01-26T02:57:09.479Z,82.66
2019-01-26T02:59:55.745Z,82.74
2019-01-26T03:02:59.737Z,82.46
2019-01-26T03:06:08.027Z,82.36
2019-01-26T03:08:58.361Z,81.70
2019-01-26T03:11:48.731Z,80.95
2019-01-26T03:14:42.118Z,80.93
2019-01-26T03:17:36.134Z,80.21
2019-01-26T03:20:29.711Z,80.19
2019-01-26T03:23:36.397Z,80.00
2019-01-26T03:30:01.023Z,78.38
2019-01-26T03:33:05.820Z,78.10
2019-01-26T03:36:18.354Z,78.68
2019-01-26T03:39:15.630Z,78.96
2019-01-26T03:42:26.896Z,79.97
2019-01-26T03:45:05.524Z,79.76
2019-01-26T03:47:58.831Z,80.09
2019-01-26T03:50:42.970Z,80.40
2019-01-26T03:53:39.395Z,80.17
2019-01-26T03:56:35.662Z,80.82
2019-01-26T03:59:22.157Z,81.53
2019-01-26T04:02:09.559Z,82.10
2019-01-26T04:05:13.773Z,82.26
2019-01-26T04:08:13.579Z,82.75
2019-01-26T04:11:06.525Z,83.09
2019-01-26T04:14:02.257Z,83.52
2019-01-26T04:17:07.223Z,83.24
2019-01-26T04:20:07.207Z,83.65
2019-01-26T04:22:47.342Z,84.11
2019-01-26T04:25:28.679Z,84.13
2019-01-26T04:28:05.062Z,84.23
2019-01-26T04:30:44.256Z,83.89
2019-01-26T04:33:32.686Z,84.31
2019-01-26T04:36:20.689Z,84.51
2019-01-26T04:39:28.887Z,84.58
2019-01-26T04:42:31.126Z,85.27
2019-01-26T04:45:24.599Z,85.37
2019-01-26T04:48:04.877Z,85.66
2019-01-26T04:50:55.162Z,85.01
2019-01-26T04:53:49.834Z,83.99
2019-01-26T04:57:04.433Z,83.42
2019-01-26T05:00:02.916Z,83.59
2019-01-26T05:02:58.935Z,84.57
2019-01-26T05:05:53.512Z,83.63
2019-01-26T05:08:36.603Z,82.07
2019-01-26T05:11:19.254Z,81.69
2019-01-26T05:13:49.180Z,82.07
2019-01-26T05:16:45.628Z,81.93
2019-01-26T05:19:54.826Z,81.69
2019-01-26T05:23:02.610Z,81.54
2019-01-26T05:29:00.142Z,82.46
2019-01-26T05:31:50.191Z,83.15
2019-01-26T05:34:32.711Z,83.67
2019-01-26T05:37:31.546Z,84.31
2019-01-26T05:40:25.230Z,84.46
2019-01-26T05:43:33.631Z,84.53
2019-01-26T05:46:03.389Z,85.28
2019-01-26T05:48:55.728Z,85.13
2019-01-26T05:51:28.404Z,85.33
2019-01-26T05:54:08.107Z,85.09
2019-01-26T05:56:38.035Z,85.28
2019-01-26T05:59:19.515Z,85.77
2019-01-26T06:01:54.500Z,85.71
2019-01-26T06:04:28.440Z,85.14
2019-01-26T06:07:05.396Z,84.95
2019-01-26T06:09:47.799Z,85.46
2019-01-26T06:12:30.220Z,85.12
2019-01-26T06:15:13.538Z,84.64
2019-01-26T06:18:06.981Z,84.93
2019-01-26T06:20:46.038Z,84.88
2019-01-26T06:23:20.162Z,84.85
2019-01-26T06:26:07.781Z,84.49
2019-01-26T06:29:00.417Z,83.41
2019-01-26T06:31:54.104Z,81.74
2019-01-26T06:34:37.932Z,80.57
2019-01-26T06:37:29.160Z,79.89
2019-01-26T06:40:14.794Z,79.28
2019-01-26T06:43:00.427Z,78.94
2019-01-26T06:45:51.023Z,78.83
2019-01-26T06:48:40.521Z,77.98
2019-01-26T06:54:27.835Z,77.01
2019-01-26T06:57:13.641Z,76.00
2019-01-26T06:59:59.697Z,73.81
2019-01-26T07:02:45.652Z,72.51
2019-01-26T07:05:47.753Z,71.05
2019-01-26T07:08:28.134Z,70.19
2019-01-26T07:11:07.421Z,70.48
2019-01-26T07:13:59.728Z,68.75
2019-01-26T07:16:43.805Z,67.61
2019-01-26T07:19:17.237Z,66.23
2019-01-26T07:22:09.741Z,65.84
2019-01-26T07:24:55.267Z,63.80
2019-01-26T07:27:48.637Z,62.63
2019-01-26T07:30:29.296Z,61.89
2019-01-26T07:33:27.907Z,62.25
2019-01-26T07:36:27.061Z,61.76
2019-01-26T07:39:38.914Z,60.05
2019-01-26T07:42:16.895Z,59.73
2019-01-26T07:44:56.464Z,59.31
2019-01-26T07:47:31.722Z,58.76
2019-01-26T07:50:04.283Z,58.09
2019-01-26T07:53:06.192Z,57.04
2019-01-26T07:56:08.348Z,55.48
2019-01-26T07:59:08.339Z,54.29
2019-01-26T08:02:13.801Z,53.13
2019-01-26T08:05:16.107Z,53.69
2019-01-26T08:08:14.789Z,52.01
2019-01-26T08:10:55.169Z,51.54
2019-01-26T08:13:32.440Z,51.83
2019-01-26T08:16:03.274Z,50.56
2019-01-26T08:18:54.557Z,48.65
2019-01-26T08:21:35.730Z,48.71
2019-01-26T08:24:29.373Z,48.15
2019-01-26T08:27:23.131Z,49.12
2019-01-26T08:29:59.811Z,49.41
2019-01-26T08:32:41.357Z,49.55
2019-01-26T08:35:36.768Z,49.44
2019-01-26T08:38:28.902Z,47.32
2019-01-26T08:41:01.831Z,48.64
2019-01-26T08:43:53.617Z,46.15
2019-01-26T08:46:29.129Z,47.37
2019-01-26T08:49:24.745Z,46.88
2019-01-26T08:52:08.034Z,48.67
2019-01-26T08:55:18.144Z,46.55
2019-01-26T08:58:06.735Z,45.95
2019-01-26T09:01:05.043Z,44.88
2019-01-26T09:03:59.263Z,45.58
2019-01-26T09:06:31.569Z,45.40
2019-01-26T09:09:35.184Z,45.57
2019-01-26T09:12:37.796Z,44.30
2019-01-26T09:15:18.001Z,45.16
2019-01-26T09:18:08.319Z,44.64
2019-01-26T09:20:55.297Z,47.01
2019-01-26T09:23:39.277Z,47.76
2019-01-26T09:26:22.030Z,45.98
2019-01-26T09:29:06.669Z,46.98
2019-01-26T09:32:14.372Z,45.89
2019-01-26T09:35:11.003Z,43.93
2019-01-26T09:38:09.164Z,44.12
2019-01-26T09:41:11.139Z,43.10
2019-01-26T09:44:07.290Z,42.67
2019-01-26T09:46:50.662Z,41.23
2019-01-26T09:49:28.440Z,40.84
2019-01-26T09:55:37.879Z,40.13
2019-01-26T09:58:33.803Z,38.75
2019-01-26T10:01:12.713Z,39.62
2019-01-26T10:03:50.151Z,40.05
2019-01-26T10:06:27.656Z,39.93
2019-01-26T10:09:03.099Z,38.87
2019-01-26T10:12:10.381Z,37.84
2019-01-26T10:18:09.256Z,38.25
2019-01-26T10:21:25.945Z,39.12
2019-01-26T10:24:24.734Z,37.65
2019-01-26T10:27:07.071Z,38.44
2019-01-26T10:30:06.536Z,38.44
2019-01-26T10:32:50.922Z,38.64
2019-01-26T10:35:59.282Z,37.87
2019-01-26T10:42:11.060Z,38.96
2019-01-26T10:44:53.339Z,38.71
2019-01-26T10:47:40.100Z,38.96
2019-01-26T10:50:17.187Z,39.18
2019-01-26T10:52:52.857Z,38.97
2019-01-26T10:55:33.627Z,38.65
2019-01-26T10:58:09.494Z,39.11
2019-01-26T11:00:48.977Z,38.17
2019-01-26T11:03:26.278Z,40.24
2019-01-26T11:06:03.028Z,39.42
2019-01-26T11:08:41.615Z,37.76
2019-01-26T11:11:22.932Z,36.78
2019-01-26T11:13:55.688Z,36.17
2019-01-26T11:16:27.224Z,35.39
2019-01-26T11:19:07.844Z,33.14
2019-01-26T11:21:45.616Z,33.48
2019-01-26T11:24:24.347Z,35.40
2019-01-26T11:27:01.201Z,36.90
2019-01-26T11:29:33.692Z,37.01
2019-01-26T11:32:16.775Z,36.44
2019-01-26T11:34:58.386Z,34.04
2019-01-26T11:37:35.223Z,35.63
2019-01-26T11:40:14.742Z,33.65
2019-01-26T11:42:53.370Z,34.24
2019-01-26T11:45:32.179Z,34.22
2019-01-26T11:48:07.669Z,36.80
2019-01-26T11:50:47.721Z,36.88
2019-01-26T11:53:23.271Z,38.32
2019-01-26T11:56:11.106Z,35.52
2019-01-26T11:58:42.648Z,36.90
2019-01-26T12:01:18.085Z,34.78
2019-01-26T12:04:06.290Z,35.18
2019-01-26T12:06:41.659Z,35.91
2019-01-26T12:09:19.035Z,35.64
2019-01-26T12:11:59.369Z,36.15
2019-01-26T12:14:34.476Z,35.95
2019-01-26T12:17:09.531Z,36.32
2019-01-26T12:19:41.479Z,35.52
2019-01-26T12:22:22.115Z,35.94
2019-01-26T12:24:58.975Z,34.73
2019-01-26T12:27:35.952Z,35.25
2019-01-26T12:30:18.652Z,35.00
2019-01-26T12:32:50.276Z,36.04
2019-01-26T12:35:26.354Z,34.83
2019-01-26T12:38:00.231Z,35.46
2019-01-26T12:40:35.734Z,34.32
2019-01-26T12:43:12.092Z,34.05
2019-01-26T12:45:48.949Z,32.32
2019-01-26T12:48:37.726Z,32.37
2019-01-26T12:51:28.101Z,32.24
2019-01-26T12:54:08.425Z,33.52
2019-01-26T12:56:49.106Z,32.99
2019-01-26T12:59:34.754Z,33.57
2019-01-26T13:11:54.279Z,34.53
2019-01-26T13:14:43.007Z,35.92
2019-01-26T13:17:36.680Z,36.38
2019-01-26T13:20:36.644Z,36.58
2019-01-26T13:23:23.092Z,37.64
2019-01-26T13:26:10.876Z,38.49
2019-01-26T13:29:01.116Z,38.77
2019-01-26T13:31:48.451Z,38.46
2019-01-26T13:34:30.203Z,38.70
2019-01-26T13:37:22.208Z,37.84
2019-01-26T13:40:22.660Z,37.06
2019-01-26T13:43:01.814Z,37.05
2019-01-26T13:45:48.582Z,36.00
2019-01-26T13:48:39.554Z,36.36
2019-01-26T13:51:24.395Z,36.38
2019-01-26T13:54:08.367Z,36.20
2019-01-26T13:56:55.058Z,35.36
2019-01-26T13:59:43.251Z,35.41
2019-01-26T14:02:25.777Z,35.42
2019-01-26T14:05:28.344Z,35.79
2019-01-26T14:08:16.433Z,36.20
2019-01-26T14:11:07.269Z,35.73
2019-01-26T14:13:45.563Z,35.40
2019-01-26T14:16:31.683Z,35.91
2019-01-26T14:19:21.527Z,35.53
2019-01-26T14:22:19.126Z,35.66
2019-01-26T14:25:13.184Z,35.14
2019-01-26T14:28:04.214Z,35.08
2019-01-26T14:30:53.836Z,35.34
2019-01-26T14:33:41.900Z,34.26
2019-01-26T14:36:39.530Z,34.24
2019-01-26T14:39:16.131Z,35.14
2019-01-26T14:42:09.073Z,35.47
2019-01-26T14:45:07.058Z,35.22
2019-01-26T14:48:03.923Z,36.17
2019-01-26T14:51:00.040Z,36.19
2019-01-26T14:53:55.266Z,36.90
2019-01-26T14:57:11.087Z,36.63
2019-01-26T15:00:13.834Z,37.15
2019-01-26T15:03:15.819Z,36.82
2019-01-26T15:06:05.544Z,37.26
2019-01-26T15:09:09.369Z,37.75
2019-01-26T15:12:20.459Z,38.31
2019-01-26T15:15:19.339Z,37.59
2019-01-26T15:18:11.281Z,38.43
2019-01-26T15:20:59.985Z,37.92
2019-01-26T15:23:54.069Z,38.11
2019-01-26T15:26:44.920Z,38.70
2019-01-26T15:29:33.597Z,38.07
2019-01-26T15:32:27.160Z,38.27
2019-01-26T15:35:05.840Z,38.33
2019-01-26T15:37:56.754Z,38.60
2019-01-26T15:40:32.504Z,38.85
2019-01-26T15:43:11.939Z,39.02
2019-01-26T15:45:57.195Z,38.61
2019-01-26T15:48:38.138Z,39.39
2019-01-26T15:51:29.604Z,39.08
2019-01-26T15:54:19.600Z,39.62
2019-01-26T15:57:12.236Z,39.95
2019-01-26T15:59:53.362Z,40.80
2019-01-26T16:02:39.739Z,42.52
2019-01-26T16:05:37.697Z,43.54
2019-01-26T16:08:26.947Z,44.99
2019-01-26T16:11:06.077Z,45.93
2019-01-26T16:13:51.808Z,45.94
2019-01-26T16:16:41.006Z,46.57
2019-01-26T16:19:27.179Z,47.27
2019-01-26T16:22:19.307Z,47.40
2019-01-26T16:25:09.687Z,47.60
2019-01-26T16:27:50.886Z,48.14
2019-01-26T16:30:46.461Z,48.80
2019-01-26T16:33:29.626Z,51.25
2019-01-26T16:36:14.175Z,47.95
2019-01-26T16:39:00.481Z,47.79
2019-01-26T16:41:44.905Z,47.78
2019-01-26T16:44:33.227Z,47.45
2019-01-26T16:47:31.905Z,48.36
2019-01-26T16:50:32.598Z,48.19
2019-01-26T16:53:20.545Z,47.94
2019-01-26T16:56:02.821Z,47.75
2019-01-26T16:58:46.168Z,48.28
2019-01-26T17:01:35.334Z,48.92
2019-01-26T17:04:32.002Z,48.67
2019-01-26T17:07:25.599Z,48.26
2019-01-26T17:10:14.852Z,47.30
2019-01-26T17:13:00.844Z,47.04
2019-01-26T17:15:44.069Z,48.29
2019-01-26T17:18:27.062Z,47.87
2019-01-26T17:21:08.753Z,47.12
2019-01-26T17:26:56.927Z,48.03
2019-01-26T17:29:55.049Z,48.05
2019-01-26T17:32:41.316Z,47.34
2019-01-26T17:35:49.695Z,48.96
2019-01-26T17:38:45.372Z,49.25
2019-01-26T17:41:52.661Z,48.08
2019-01-26T17:44:26.689Z,48.91
2019-01-26T17:47:43.899Z,47.92
2019-01-26T17:50:34.082Z,47.23
2019-01-26T17:53:29.609Z,46.49
2019-01-26T17:56:01.583Z,46.69
2019-01-26T17:58:47.575Z,46.87
2019-01-26T18:01:38.146Z,47.06
2019-01-26T18:04:22.022Z,47.03
2019-01-26T18:07:18.643Z,46.19
2019-01-26T18:10:09.561Z,46.22
2019-01-26T18:12:58.545Z,47.11
2019-01-26T18:15:53.915Z,49.20
2019-01-26T18:18:45.672Z,52.21
2019-01-26T18:21:56.510Z,50.95
2019-01-26T18:24:34.733Z,50.51
2019-01-26T18:27:40.012Z,51.02
2019-01-26T18:31:05.439Z,53.46
2019-01-26T18:33:52.101Z,51.38
2019-01-26T18:36:29.799Z,52.00
2019-01-26T18:39:12.144Z,52.62
2019-01-26T18:41:51.224Z,52.80
2019-01-26T18:44:24.468Z,53.16
2019-01-26T18:47:21.322Z,54.10
2019-01-26T18:50:06.393Z,53.38
2019-01-26T18:53:13.072Z,53.15
2019-01-26T18:56:10.643Z,51.89
2019-01-26T18:58:56.651Z,52.40
2019-01-26T19:01:42.542Z,53.55
2019-01-26T19:04:53.264Z,53.28
2019-01-26T19:07:53.969Z,52.41
2019-01-26T19:10:40.010Z,52.68
2019-01-26T19:13:23.548Z,52.15
2019-01-26T19:16:19.134Z,51.35
2019-01-26T19:19:24.780Z,51.54
2019-01-26T19:22:33.911Z,51.99
2019-01-26T19:25:41.995Z,51.99
2019-01-26T19:28:47.566Z,51.50
2019-01-26T19:31:58.433Z,51.57
2019-01-26T19:34:39.857Z,52.10
2019-01-26T19:37:40.738Z,52.66
2019-01-26T19:40:36.018Z,53.87
2019-01-26T19:43:19.230Z,54.37
2019-01-26T19:46:15.597Z,55.46
2019-01-26T19:49:09.746Z,54.81
2019-01-26T19:52:10.861Z,55.06
2019-01-26T19:55:12.543Z,55.40
2019-01-26T19:58:19.919Z,52.36
2019-01-26T20:01:22.431Z,50.15
2019-01-26T20:04:27.204Z,51.75
2019-01-26T20:07:42.594Z,50.96
2019-01-26T20:11:02.665Z,51.76
2019-01-26T20:17:18.451Z,52.17
2019-01-26T20:23:38.052Z,53.41
2019-01-26T20:26:39.073Z,53.20
2019-01-26T20:29:31.873Z,54.73
2019-01-26T20:32:38.153Z,54.93
2019-01-26T20:35:26.354Z,53.92
2019-01-26T20:38:09.919Z,55.28
2019-01-26T20:40:58.545Z,57.16
2019-01-26T20:43:49.077Z,53.30
2019-01-26T20:46:55.753Z,52.86
2019-01-26T20:49:39.134Z,52.24
2019-01-26T20:52:28.552Z,51.50
2019-01-26T20:58:00.678Z,50.55
2019-01-26T21:00:58.957Z,51.11
2019-01-26T21:04:11.687Z,51.48
2019-01-26T21:07:20.119Z,52.69
2019-01-26T21:10:10.018Z,53.85
2019-01-26T21:13:16.342Z,54.19
2019-01-26T21:16:09.887Z,53.84
2019-01-26T21:19:28.098Z,52.73
2019-01-26T21:22:11.238Z,52.81
2019-01-26T21:25:13.637Z,53.87
2019-01-26T21:28:09.322Z,54.59
2019-01-26T21:30:57.790Z,55.25
2019-01-26T21:33:31.576Z,56.13
2019-01-26T21:39:21.466Z,57.95
2019-01-26T21:42:12.267Z,59.11
2019-01-26T21:44:52.453Z,59.21
2019-01-26T21:47:45.543Z,58.78
2019-01-26T21:50:49.966Z,56.69
2019-01-26T21:53:37.420Z,56.13
2019-01-26T21:56:33.879Z,57.35
2019-01-26T21:59:29.528Z,58.08
2019-01-26T22:02:49.086Z,58.38
2019-01-26T22:05:52.811Z,58.47
2019-01-26T22:08:33.932Z,58.42
2019-01-26T22:11:39.736Z,59.49
2019-01-26T22:14:35.622Z,59.58
2019-01-26T22:17:40.978Z,57.50
2019-01-26T22:20:42.998Z,56.56
2019-01-26T22:23:54.055Z,56.06
2019-01-26T22:26:35.466Z,56.30
2019-01-26T22:29:35.317Z,58.02
2019-01-26T22:32:43.289Z,58.78
2019-01-26T22:35:44.679Z,59.73
2019-01-26T22:44:32.287Z,61.59
2019-01-26T22:50:33.212Z,61.96
2019-01-26T22:53:22.422Z,62.08
2019-01-26T22:56:23.716Z,62.69
2019-01-26T22:59:02.628Z,60.88
2019-01-26T23:02:10.528Z,60.40
2019-01-26T23:11:56.458Z,62.31
2019-01-26T23:15:17.092Z,64.05
2019-01-26T23:18:20.109Z,64.12
2019-01-26T23:21:16.202Z,65.07
2019-01-26T23:24:29.951Z,66.18
2019-01-26T23:27:32.577Z,65.72
2019-01-26T23:30:33.899Z,68.49
2019-01-26T23:33:12.154Z,70.53
2019-01-26T23:36:10.830Z,70.24
2019-01-26T23:39:18.733Z,70.24
2019-01-26T23:42:07.466Z,70.75
2019-01-26T23:45:17.374Z,72.89
2019-01-26T23:48:19.762Z,75.01
2019-01-26T23:51:13.170Z,67.56
2019-01-26T23:54:03.988Z,67.30
2019-01-26T23:57:05.465Z,68.94
